Aviation Digital Data Service (ADDS)

Output produced by METARs form (0335 UTC 18 June 2019)
found at http://www.aviationweather.gov/metar/data/
 
Forecast for: AYPY (PORT MORESBY INT, PG)
Text: TAF AYPY 172150Z 1800/1824 14010KT 9999 SCT018
Forecast period: 0000 to 0400 UTC 18 June 2019
Forecast type: FROM: standard forecast or significant change
Winds: from the SE (140 degrees) at 12 MPH (10 knots; 5.1 m/s)
Visibility: 6 or more miles 10+ km)
Ceiling: at least 12,000 feet AGL
Clouds: scattered clouds at 1800 feet AGL
Weather: no significant weather forecast for this period
Text: FM180400 16012KT 9999 SCT020
Forecast period: 0400 UTC 18 June 2019 to 0000 UTC 19 June 2019
Forecast type: FROM: standard forecast or significant change
Winds: from the SSE (160 degrees) at 14 MPH (12 knots; 6.2 m/s)
Visibility: 6 or more miles 10+ km)
Ceiling: at least 12,000 feet AGL
Clouds: scattered clouds at 2000 feet AGL
Weather: no significant weather forecast for this period